sensor_id;sensor_type;location;lat;lon;timestamp;pressure;altitude;pressure_sealevel;temperature;humidity
36454;BME280;22478;51.740;-1.314;2023-06-10T00:01:36;100183.08;;;5.41;100.00
36454;BME280;22478;51.740;-1.314;2023-06-10T00:04:04;100177.46;;;6.18;100.00
36454;BME280;22478;51.740;-1.314;2023-06-10T00:06:31;100181.91;;;5.82;100.00
36454;BME280;22478;51.740;-1.314;2023-06-10T00:08:58;100173.63;;;6.21;100.00
36454;BME280;22478;51.740;-1.314;2023-06-10T00:11:26;100182.87;;;6.02;100.00
36454;BME280;22478;51.740;-1.314;2023-06-10T00:13:53;100181.54;;;5.66;100.00
36454;BME280;22478;51.740;-1.314;2023-06-10T00:16:20;100174.80;;;5.53;100.00
36454;BME280;22478;51.740;-1.314;2023-06-10T00:18:48;100167.87;;;5.76;100.00
36454;BME280;22478;51.740;-1.314;2023-06-10T00:21:15;100177.87;;;5.39;100.00
36454;BME280;22478;51.740;-1.314;2023-06-10T00:23:42;100162.50;;;6.59;100.00
36454;BME280;22478;51.740;-1.314;2023-06-10T00:26:09;100160.04;;;5.60;100.00
36454;BME280;22478;51.740;-1.314;2023-06-10T00:28:37;100153.95;;;5.65;100.00
36454;BME280;22478;51.740;-1.314;2023-06-10T00:31:04;100150.47;;;6.57;100.00
36454;BME280;22478;51.740;-1.314;2023-06-10T00:33:31;100147.79;;;7.08;100.00
36454;BME280;22478;51.740;-1.314;2023-06-10T00:35:58;100153.05;;;5.93;100.00
36454;BME280;22478;51.740;-1.314;2023-06-10T00:38:25;100151.33;;;6.67;100.00
36454;BME280;22478;51.740;-1.314;2023-06-10T00:40:53;100142.91;;;8.66;100.00
36454;BME280;22478;51.740;-1.314;2023-06-10T00:43:20;100145.97;;;6.11;100.00
36454;BME280;22478;51.740;-1.314;2023-06-10T00:45:47;100154.04;;;5.71;100.00
36454;BME280;22478;51.740;-1.314;2023-06-10T00:48:15;100152.10;;;6.00;100.00
36454;BME280;22478;51.740;-1.314;2023-06-10T00:50:42;100149.36;;;5.59;100.00
36454;BME280;22478;51.740;-1.314;2023-06-10T00:53:09;100148.30;;;6.88;100.00
36454;BME280;22478;51.740;-1.314;2023-06-10T00:55:37;100142.33;;;8.03;100.00
36454;BME280;22478;51.740;-1.314;2023-06-10T00:58:05;100150.34;;;6.68;100.00
36454;BME280;22478;51.740;-1.314;2023-06-10T01:00:33;100147.34;;;6.10;100.00
36454;BME280;22478;51.740;-1.314;2023-06-10T01:03:00;100150.71;;;5.78;100.00
36454;BME280;22478;51.740;-1.314;2023-06-10T01:05:27;100144.30;;;6.70;100.00
36454;BME280;22478;51.740;-1.314;2023-06-10T01:08:01;100144.83;;;6.04;100.00
36454;BME280;22478;51.740;-1.314;2023-06-10T01:10:33;100153.95;;;5.90;100.00
36454;BME280;22478;51.740;-1.314;2023-06-10T01:13:03;100150.76;;;6.06;100.00
36454;BME280;22478;51.740;-1.314;2023-06-10T01:15:33;100159.52;;;5.09;100.00
36454;BME280;22478;51.740;-1.314;2023-06-10T01:18:03;100155.58;;;6.22;100.00
36454;BME280;22478;51.740;-1.314;2023-06-10T01:20:32;100141.64;;;6.90;100.00
36454;BME280;22478;51.740;-1.314;2023-06-10T01:23:00;100127.95;;;8.24;100.00
36454;BME280;22478;51.740;-1.314;2023-06-10T01:25:28;100133.39;;;7.65;100.00
36454;BME280;22478;51.740;-1.314;2023-06-10T01:28:03;100142.49;;;6.32;100.00
36454;BME280;22478;51.740;-1.314;2023-06-10T01:30:38;100144.34;;;6.42;100.00
36454;BME280;22478;51.740;-1.314;2023-06-10T01:33:09;100133.74;;;8.61;100.00
36454;BME280;22478;51.740;-1.314;2023-06-10T01:35:38;100143.12;;;7.69;100.00
36454;BME280;22478;51.740;-1.314;2023-06-10T01:38:06;100144.31;;;5.54;100.00
36454;BME280;22478;51.740;-1.314;2023-06-10T01:40:34;100144.53;;;6.07;100.00
36454;BME280;22478;51.740;-1.314;2023-06-10T01:43:02;100143.33;;;6.83;100.00
36454;BME280;22478;51.740;-1.314;2023-06-10T01:45:29;100131.72;;;7.97;100.00
36454;BME280;22478;51.740;-1.314;2023-06-10T01:47:56;100138.21;;;6.13;100.00
36454;BME280;22478;51.740;-1.314;2023-06-10T01:50:23;100133.39;;;8.41;100.00
36454;BME280;22478;51.740;-1.314;2023-06-10T01:52:50;100136.24;;;6.81;100.00
36454;BME280;22478;51.740;-1.314;2023-06-10T01:55:17;100131.96;;;8.42;100.00
36454;BME280;22478;51.740;-1.314;2023-06-10T01:57:44;100123.18;;;8.94;100.00
36454;BME280;22478;51.740;-1.314;2023-06-10T02:00:13;100134.23;;;5.97;100.00
36454;BME280;22478;51.740;-1.314;2023-06-10T02:02:40;100135.53;;;5.81;100.00
36454;BME280;22478;51.740;-1.314;2023-06-10T02:05:07;100131.27;;;5.82;100.00
36454;BME280;22478;51.740;-1.314;2023-06-10T02:07:35;100131.76;;;6.48;100.00
36454;BME280;22478;51.740;-1.314;2023-06-10T02:10:02;100118.04;;;8.52;100.00
36454;BME280;22478;51.740;-1.314;2023-06-10T02:12:29;100129.12;;;6.33;100.00
36454;BME280;22478;51.740;-1.314;2023-06-10T02:14:56;100128.21;;;6.23;100.00
36454;BME280;22478;51.740;-1.314;2023-06-10T02:17:23;100129.94;;;6.78;100.00
36454;BME280;22478;51.740;-1.314;2023-06-10T02:19:50;100134.61;;;6.58;100.00
36454;BME280;22478;51.740;-1.314;2023-06-10T02:22:20;100124.19;;;8.65;100.00
36454;BME280;22478;51.740;-1.314;2023-06-10T02:24:47;100134.58;;;4.81;100.00
36454;BME280;22478;51.740;-1.314;2023-06-10T02:27:15;100136.16;;;7.06;100.00
36454;BME280;22478;51.740;-1.314;2023-06-10T02:29:43;100135.83;;;6.42;100.00
36454;BME280;22478;51.740;-1.314;2023-06-10T02:32:10;100141.73;;;4.89;100.00
36454;BME280;22478;51.740;-1.314;2023-06-10T02:34:37;100127.83;;;6.82;100.00
36454;BME280;22478;51.740;-1.314;2023-06-10T02:37:05;100124.89;;;5.70;100.00
36454;BME280;22478;51.740;-1.314;2023-06-10T02:39:32;100125.24;;;6.25;100.00
36454;BME280;22478;51.740;-1.314;2023-06-10T02:42:00;100119.76;;;6.29;100.00
36454;BME280;22478;51.740;-1.314;2023-06-10T02:44:27;100121.51;;;6.10;100.00
36454;BME280;22478;51.740;-1.314;2023-06-10T02:46:54;100131.96;;;5.09;100.00
36454;BME280;22478;51.740;-1.314;2023-06-10T02:49:21;100129.31;;;5.67;100.00
36454;BME280;22478;51.740;-1.314;2023-06-10T02:51:50;100121.43;;;6.77;100.00
36454;BME280;22478;51.740;-1.314;2023-06-10T02:54:17;100124.62;;;5.69;100.00
36454;BME280;22478;51.740;-1.314;2023-06-10T02:56:44;100126.57;;;6.16;100.00
36454;BME280;22478;51.740;-1.314;2023-06-10T02:59:11;100134.09;;;6.59;100.00
36454;BME280;22478;51.740;-1.314;2023-06-10T03:01:39;100128.14;;;7.95;100.00
36454;BME280;22478;51.740;-1.314;2023-06-10T03:04:07;100131.17;;;4.87;100.00
36454;BME280;22478;51.740;-1.314;2023-06-10T03:06:34;100131.63;;;6.02;100.00
36454;BME280;22478;51.740;-1.314;2023-06-10T03:09:02;100117.58;;;8.36;100.00
36454;BME280;22478;51.740;-1.314;2023-06-10T03:11:29;100128.94;;;7.21;100.00
36454;BME280;22478;51.740;-1.314;2023-06-10T03:13:57;100124.07;;;6.79;100.00
36454;BME280;22478;51.740;-1.314;2023-06-10T03:16:24;100127.52;;;6.38;100.00
36454;BME280;22478;51.740;-1.314;2023-06-10T03:18:52;100131.15;;;7.38;100.00
36454;BME280;22478;51.740;-1.314;2023-06-10T03:21:20;100127.01;;;7.03;100.00
36454;BME280;22478;51.740;-1.314;2023-06-10T03:23:48;100133.09;;;6.43;100.00
36454;BME280;22478;51.740;-1.314;2023-06-10T03:26:15;100131.28;;;8.28;100.00
36454;BME280;22478;51.740;-1.314;2023-06-10T03:28:42;100133.78;;;5.27;100.00
36454;BME280;22478;51.740;-1.314;2023-06-10T03:31:09;100128.20;;;7.58;100.00
36454;BME280;22478;51.740;-1.314;2023-06-10T03:33:37;100133.43;;;5.93;100.00
36454;BME280;22478;51.740;-1.314;2023-06-10T03:36:04;100131.21;;;6.89;100.00
36454;BME280;22478;51.740;-1.314;2023-06-10T03:38:32;100128.98;;;7.43;100.00
36454;BME280;22478;51.740;-1.314;2023-06-10T03:40:59;100126.90;;;6.54;100.00
36454;BME280;22478;51.740;-1.314;2023-06-10T03:43:26;100120.63;;;7.48;100.00
36454;BME280;22478;51.740;-1.314;2023-06-10T03:45:53;100127.04;;;6.26;100.00
36454;BME280;22478;51.740;-1.314;2023-06-10T03:48:20;100123.31;;;5.97;100.00
36454;BME280;22478;51.740;-1.314;2023-06-10T03:50:48;100129.17;;;4.41;100.00
36454;BME280;22478;51.740;-1.314;2023-06-10T03:53:15;100124.28;;;5.94;100.00
36454;BME280;22478;51.740;-1.314;2023-06-10T03:55:42;100121.07;;;6.23;100.00
36454;BME280;22478;51.740;-1.314;2023-06-10T03:58:09;100117.37;;;6.38;100.00
36454;BME280;22478;51.740;-1.314;2023-06-10T04:00:36;100111.66;;;6.07;100.00
36454;BME280;22478;51.740;-1.314;2023-06-10T04:03:03;100112.87;;;6.47;100.00
36454;BME280;22478;51.740;-1.314;2023-06-10T04:05:31;100111.20;;;8.31;100.00
36454;BME280;22478;51.740;-1.314;2023-06-10T04:07:58;100113.27;;;5.83;100.00
36454;BME280;22478;51.740;-1.314;2023-06-10T04:10:25;100119.38;;;4.53;100.00
36454;BME280;22478;51.740;-1.314;2023-06-10T04:12:52;100112.55;;;4.73;100.00
36454;BME280;22478;51.740;-1.314;2023-06-10T04:15:20;100112.19;;;5.50;100.00
36454;BME280;22478;51.740;-1.314;2023-06-10T04:17:47;100120.95;;;4.51;100.00
36454;BME280;22478;51.740;-1.314;2023-06-10T04:20:14;100113.04;;;5.65;100.00
36454;BME280;22478;51.740;-1.314;2023-06-10T04:22:41;100105.06;;;6.20;100.00
36454;BME280;22478;51.740;-1.314;2023-06-10T04:25:10;100109.98;;;4.77;100.00
36454;BME280;22478;51.740;-1.314;2023-06-10T04:27:37;100116.45;;;4.52;100.00
36454;BME280;22478;51.740;-1.314;2023-06-10T04:30:05;100107.51;;;6.45;100.00
36454;BME280;22478;51.740;-1.314;2023-06-10T04:32:32;100104.30;;;6.19;100.00
36454;BME280;22478;51.740;-1.314;2023-06-10T04:35:00;100103.99;;;6.05;100.00
36454;BME280;22478;51.740;-1.314;2023-06-10T04:37:27;100103.37;;;5.81;100.00
36454;BME280;22478;51.740;-1.314;2023-06-10T04:39:54;100106.57;;;4.90;100.00
36454;BME280;22478;51.740;-1.314;2023-06-10T04:42:21;100112.54;;;5.76;100.00
36454;BME280;22478;51.740;-1.314;2023-06-10T04:44:48;100114.28;;;5.68;100.00
36454;BME280;22478;51.740;-1.314;2023-06-10T04:47:16;100128.15;;;5.02;100.00
36454;BME280;22478;51.740;-1.314;2023-06-10T04:49:43;100124.37;;;6.01;100.00
36454;BME280;22478;51.740;-1.314;2023-06-10T04:52:10;100126.06;;;6.10;100.00
36454;BME280;22478;51.740;-1.314;2023-06-10T04:54:38;100124.49;;;6.31;100.00
36454;BME280;22478;51.740;-1.314;2023-06-10T04:57:07;100111.56;;;8.07;100.00
36454;BME280;22478;51.740;-1.314;2023-06-10T04:59:34;100107.69;;;8.85;100.00
36454;BME280;22478;51.740;-1.314;2023-06-10T05:02:01;100107.70;;;8.11;100.00
36454;BME280;22478;51.740;-1.314;2023-06-10T05:04:29;100103.86;;;7.19;100.00
36454;BME280;22478;51.740;-1.314;2023-06-10T05:06:56;100106.41;;;7.03;100.00
36454;BME280;22478;51.740;-1.314;2023-06-10T05:09:23;100108.31;;;6.93;100.00
36454;BME280;22478;51.740;-1.314;2023-06-10T05:11:51;100111.30;;;6.66;100.00
36454;BME280;22478;51.740;-1.314;2023-06-10T05:14:18;100110.59;;;5.96;100.00
36454;BME280;22478;51.740;-1.314;2023-06-10T05:16:45;100111.73;;;7.02;100.00
36454;BME280;22478;51.740;-1.314;2023-06-10T05:19:12;100105.43;;;8.02;100.00
36454;BME280;22478;51.740;-1.314;2023-06-10T05:21:40;100118.39;;;5.12;100.00
36454;BME280;22478;51.740;-1.314;2023-06-10T05:24:41;100112.61;;;4.65;100.00
36454;BME280;22478;51.740;-1.314;2023-06-10T05:27:08;100095.91;;;8.23;100.00
36454;BME280;22478;51.740;-1.314;2023-06-10T05:29:35;100103.56;;;6.13;100.00
36454;BME280;22478;51.740;-1.314;2023-06-10T05:32:03;100105.23;;;5.77;100.00
36454;BME280;22478;51.740;-1.314;2023-06-10T05:34:30;100103.62;;;4.91;100.00
36454;BME280;22478;51.740;-1.314;2023-06-10T05:36:58;100098.07;;;9.00;100.00
36454;BME280;22478;51.740;-1.314;2023-06-10T05:39:25;100100.25;;;6.90;100.00
36454;BME280;22478;51.740;-1.314;2023-06-10T05:41:52;100105.17;;;6.09;100.00
36454;BME280;22478;51.740;-1.314;2023-06-10T05:44:19;100101.48;;;8.08;100.00
36454;BME280;22478;51.740;-1.314;2023-06-10T05:46:47;100096.91;;;8.09;100.00
36454;BME280;22478;51.740;-1.314;2023-06-10T05:49:14;100100.90;;;7.45;100.00
36454;BME280;22478;51.740;-1.314;2023-06-10T05:51:41;100101.79;;;6.43;100.00
36454;BME280;22478;51.740;-1.314;2023-06-10T05:54:08;100106.28;;;6.82;100.00
36454;BME280;22478;51.740;-1.314;2023-06-10T05:56:35;100122.35;;;6.14;100.00
36454;BME280;22478;51.740;-1.314;2023-06-10T05:59:02;100135.81;;;6.67;100.00
36454;BME280;22478;51.740;-1.314;2023-06-10T06:01:30;100130.27;;;7.83;100.00
36454;BME280;22478;51.740;-1.314;2023-06-10T06:03:58;100130.37;;;5.43;100.00
36454;BME280;22478;51.740;-1.314;2023-06-10T06:06:25;100132.94;;;6.18;100.00
36454;BME280;22478;51.740;-1.314;2023-06-10T06:08:53;100127.37;;;7.22;100.00
36454;BME280;22478;51.740;-1.314;2023-06-10T06:11:20;100131.37;;;7.04;100.00
36454;BME280;22478;51.740;-1.314;2023-06-10T06:13:47;100132.68;;;7.32;100.00
36454;BME280;22478;51.740;-1.314;2023-06-10T06:16:15;100129.78;;;6.91;100.00
36454;BME280;22478;51.740;-1.314;2023-06-10T06:18:42;100114.61;;;9.19;100.00
36454;BME280;22478;51.740;-1.314;2023-06-10T06:21:10;100118.01;;;7.16;100.00
36454;BME280;22478;51.740;-1.314;2023-06-10T06:23:37;100100.45;;;8.82;100.00
36454;BME280;22478;51.740;-1.314;2023-06-10T06:26:04;100107.74;;;7.16;100.00
36454;BME280;22478;51.740;-1.314;2023-06-10T06:28:31;100107.64;;;7.66;100.00
36454;BME280;22478;51.740;-1.314;2023-06-10T06:30:58;100105.47;;;6.58;100.00
36454;BME280;22478;51.740;-1.314;2023-06-10T06:33:26;100113.97;;;6.74;100.00
36454;BME280;22478;51.740;-1.314;2023-06-10T06:35:53;100110.89;;;7.69;100.00
36454;BME280;22478;51.740;-1.314;2023-06-10T06:38:20;100109.81;;;7.55;100.00
36454;BME280;22478;51.740;-1.314;2023-06-10T06:40:47;100104.57;;;8.14;100.00
36454;BME280;22478;51.740;-1.314;2023-06-10T06:43:14;100101.22;;;7.99;100.00
36454;BME280;22478;51.740;-1.314;2023-06-10T06:45:42;100103.04;;;9.00;100.00
36454;BME280;22478;51.740;-1.314;2023-06-10T06:48:08;100104.78;;;8.23;100.00
36454;BME280;22478;51.740;-1.314;2023-06-10T06:50:35;100111.72;;;8.29;100.00
36454;BME280;22478;51.740;-1.314;2023-06-10T06:53:03;100113.13;;;8.15;100.00
36454;BME280;22478;51.740;-1.314;2023-06-10T06:55:30;100112.66;;;7.33;100.00
36454;BME280;22478;51.740;-1.314;2023-06-10T06:57:58;100106.96;;;8.64;100.00
36454;BME280;22478;51.740;-1.314;2023-06-10T07:00:30;100110.86;;;6.84;100.00
36454;BME280;22478;51.740;-1.314;2023-06-10T07:02:57;100109.57;;;8.30;100.00
36454;BME280;22478;51.740;-1.314;2023-06-10T07:05:24;100105.06;;;8.79;100.00
36454;BME280;22478;51.740;-1.314;2023-06-10T07:07:52;100100.54;;;9.69;100.00
36454;BME280;22478;51.740;-1.314;2023-06-10T07:10:19;100103.41;;;9.39;100.00
36454;BME280;22478;51.740;-1.314;2023-06-10T07:12:46;100108.57;;;9.21;100.00
36454;BME280;22478;51.740;-1.314;2023-06-10T07:15:14;100107.04;;;11.33;100.00
36454;BME280;22478;51.740;-1.314;2023-06-10T07:17:41;100107.85;;;10.87;100.00
36454;BME280;22478;51.740;-1.314;2023-06-10T07:20:09;100105.93;;;11.11;100.00
36454;BME280;22478;51.740;-1.314;2023-06-10T07:22:37;100099.40;;;9.04;100.00
36454;BME280;22478;51.740;-1.314;2023-06-10T07:25:05;100097.27;;;10.41;100.00
36454;BME280;22478;51.740;-1.314;2023-06-10T07:27:32;100106.42;;;8.64;100.00
36454;BME280;22478;51.740;-1.314;2023-06-10T07:30:06;100104.17;;;9.38;100.00
36454;BME280;22478;51.740;-1.314;2023-06-10T07:32:34;100101.93;;;12.70;100.00
36454;BME280;22478;51.740;-1.314;2023-06-10T07:35:01;100101.62;;;13.43;100.00
36454;BME280;22478;51.740;-1.314;2023-06-10T07:37:29;100104.98;;;11.59;100.00
36454;BME280;22478;51.740;-1.314;2023-06-10T07:39:56;100110.54;;;11.37;100.00
36454;BME280;22478;51.740;-1.314;2023-06-10T07:42:23;100105.27;;;9.28;100.00
36454;BME280;22478;51.740;-1.314;2023-06-10T07:44:51;100109.87;;;9.97;100.00
36454;BME280;22478;51.740;-1.314;2023-06-10T07:47:18;100109.11;;;10.71;100.00
36454;BME280;22478;51.740;-1.314;2023-06-10T07:49:46;100097.57;;;12.50;100.00
36454;BME280;22478;51.740;-1.314;2023-06-10T07:52:18;100103.12;;;10.59;100.00
36454;BME280;22478;51.740;-1.314;2023-06-10T07:54:45;100097.13;;;12.89;100.00
36454;BME280;22478;51.740;-1.314;2023-06-10T07:57:12;100098.77;;;14.57;100.00
36454;BME280;22478;51.740;-1.314;2023-06-10T07:59:39;100104.37;;;11.99;100.00
36454;BME280;22478;51.740;-1.314;2023-06-10T08:02:07;100110.93;;;10.52;100.00
36454;BME280;22478;51.740;-1.314;2023-06-10T08:04:34;100100.38;;;12.68;100.00
36454;BME280;22478;51.740;-1.314;2023-06-10T08:07:06;100110.43;;;13.81;100.00
36454;BME280;22478;51.740;-1.314;2023-06-10T08:09:38;100112.54;;;14.68;100.00
36454;BME280;22478;51.740;-1.314;2023-06-10T08:12:07;100113.62;;;13.65;100.00
36454;BME280;22478;51.740;-1.314;2023-06-10T08:14:34;100105.52;;;14.46;100.00
36454;BME280;22478;51.740;-1.314;2023-06-10T08:17:01;100106.03;;;13.09;100.00
36454;BME280;22478;51.740;-1.314;2023-06-10T08:19:28;100102.66;;;16.02;100.00
36454;BME280;22478;51.740;-1.314;2023-06-10T08:21:56;100107.27;;;15.61;100.00
36454;BME280;22478;51.740;-1.314;2023-06-10T08:24:23;100100.79;;;17.13;100.00
36454;BME280;22478;51.740;-1.314;2023-06-10T08:26:50;100099.92;;;19.11;88.64
36454;BME280;22478;51.740;-1.314;2023-06-10T08:29:17;100102.44;;;17.48;93.70
36454;BME280;22478;51.740;-1.314;2023-06-10T08:31:45;100097.11;;;19.43;88.59
36454;BME280;22478;51.740;-1.314;2023-06-10T08:34:12;100111.75;;;14.60;100.00
36454;BME280;22478;51.740;-1.314;2023-06-10T08:36:39;100099.61;;;16.97;98.80
36454;BME280;22478;51.740;-1.314;2023-06-10T08:39:06;100096.94;;;18.67;94.07
36454;BME280;22478;51.740;-1.314;2023-06-10T08:41:37;100088.99;;;21.27;77.39
36454;BME280;22478;51.740;-1.314;2023-06-10T08:44:10;100090.70;;;18.83;87.12
36454;BME280;22478;51.740;-1.314;2023-06-10T08:46:44;100089.99;;;19.65;82.49
36454;BME280;22478;51.740;-1.314;2023-06-10T08:49:17;100087.24;;;20.91;74.79
36454;BME280;22478;51.740;-1.314;2023-06-10T08:51:45;100089.43;;;19.63;77.31
36454;BME280;22478;51.740;-1.314;2023-06-10T08:54:19;100077.57;;;21.42;67.79
36454;BME280;22478;51.740;-1.314;2023-06-10T08:56:49;100085.66;;;20.48;71.53
36454;BME280;22478;51.740;-1.314;2023-06-10T08:59:18;100082.39;;;22.37;64.71
36454;BME280;22478;51.740;-1.314;2023-06-10T09:01:46;100088.84;;;24.55;60.65
36454;BME280;22478;51.740;-1.314;2023-06-10T09:04:13;100083.18;;;23.63;57.33
36454;BME280;22478;51.740;-1.314;2023-06-10T09:06:41;100079.69;;;25.71;53.27
36454;BME280;22478;51.740;-1.314;2023-06-10T09:09:08;100072.67;;;26.73;54.73
36454;BME280;22478;51.740;-1.314;2023-06-10T09:11:37;100077.90;;;25.37;54.13
36454;BME280;22478;51.740;-1.314;2023-06-10T09:14:05;100080.41;;;22.63;63.13
36454;BME280;22478;51.740;-1.314;2023-06-10T09:16:34;100082.43;;;22.17;65.81
36454;BME280;22478;51.740;-1.314;2023-06-10T09:19:01;100077.03;;;23.73;62.92
36454;BME280;22478;51.740;-1.314;2023-06-10T09:21:28;100083.79;;;19.73;72.09
36454;BME280;22478;51.740;-1.314;2023-06-10T09:23:56;100078.42;;;23.56;64.64
36454;BME280;22478;51.740;-1.314;2023-06-10T09:26:28;100082.81;;;24.89;61.18
36454;BME280;22478;51.740;-1.314;2023-06-10T09:29:03;100080.42;;;25.15;57.10
36454;BME280;22478;51.740;-1.314;2023-06-10T09:31:36;100076.07;;;23.29;63.68
36454;BME280;22478;51.740;-1.314;2023-06-10T09:34:06;100076.69;;;21.53;65.52
36454;BME280;22478;51.740;-1.314;2023-06-10T09:36:34;100070.61;;;26.79;54.25
36454;BME280;22478;51.740;-1.314;2023-06-10T09:39:02;100078.35;;;22.91;57.07
36454;BME280;22478;51.740;-1.314;2023-06-10T09:41:32;100073.29;;;25.04;55.82
36454;BME280;22478;51.740;-1.314;2023-06-10T09:43:59;100078.03;;;19.50;70.45
36454;BME280;22478;51.740;-1.314;2023-06-10T09:46:32;100073.08;;;20.98;68.40
36454;BME280;22478;51.740;-1.314;2023-06-10T09:48:59;100068.64;;;23.34;60.52
36454;BME280;22478;51.740;-1.314;2023-06-10T09:51:26;100074.05;;;20.29;70.64
36454;BME280;22478;51.740;-1.314;2023-06-10T09:53:53;100067.87;;;22.25;69.52
36454;BME280;22478;51.740;-1.314;2023-06-10T09:56:21;100058.26;;;25.91;55.81
36454;BME280;22478;51.740;-1.314;2023-06-10T09:58:59;100066.73;;;23.08;59.14
36454;BME280;22478;51.740;-1.314;2023-06-10T10:01:26;100065.13;;;22.43;65.13
36454;BME280;22478;51.740;-1.314;2023-06-10T10:03:54;100062.69;;;24.02;62.99
36454;BME280;22478;51.740;-1.314;2023-06-10T10:06:21;100065.78;;;23.33;61.89
36454;BME280;22478;51.740;-1.314;2023-06-10T10:08:50;100066.59;;;22.75;63.36
36454;BME280;22478;51.740;-1.314;2023-06-10T10:11:19;100062.66;;;25.18;58.29
36454;BME280;22478;51.740;-1.314;2023-06-10T10:13:50;100056.37;;;25.74;57.34
36454;BME280;22478;51.740;-1.314;2023-06-10T10:16:20;100060.23;;;22.15;66.81
36454;BME280;22478;51.740;-1.314;2023-06-10T10:18:53;100048.85;;;25.14;58.49
36454;BME280;22478;51.740;-1.314;2023-06-10T10:21:24;100055.33;;;26.22;54.96
36454;BME280;22478;51.740;-1.314;2023-06-10T10:23:58;100046.79;;;26.87;54.28
36454;BME280;22478;51.740;-1.314;2023-06-10T10:26:27;100046.85;;;26.13;55.41
36454;BME280;22478;51.740;-1.314;2023-06-10T10:29:07;100056.35;;;23.06;64.91
36454;BME280;22478;51.740;-1.314;2023-06-10T10:31:38;100051.70;;;21.50;64.44
36454;BME280;22478;51.740;-1.314;2023-06-10T10:34:10;100040.37;;;26.26;56.88
36454;BME280;22478;51.740;-1.314;2023-06-10T10:36:39;100038.16;;;28.54;49.45
36454;BME280;22478;51.740;-1.314;2023-06-10T10:39:06;100031.54;;;30.44;43.83
36454;BME280;22478;51.740;-1.314;2023-06-10T10:41:34;100035.67;;;26.52;50.48
36454;BME280;22478;51.740;-1.314;2023-06-10T10:44:04;100035.96;;;28.52;46.32
36454;BME280;22478;51.740;-1.314;2023-06-10T10:46:49;100035.51;;;25.92;49.99
36454;BME280;22478;51.740;-1.314;2023-06-10T10:49:17;100033.19;;;26.44;53.08
36454;BME280;22478;51.740;-1.314;2023-06-10T10:52:02;100035.00;;;28.35;48.65
36454;BME280;22478;51.740;-1.314;2023-06-10T10:54:31;100022.17;;;32.56;40.49
36454;BME280;22478;51.740;-1.314;2023-06-10T10:57:15;100023.48;;;33.31;39.09
36454;BME280;22478;51.740;-1.314;2023-06-10T10:59:44;100020.80;;;31.57;40.64
36454;BME280;22478;51.740;-1.314;2023-06-10T11:02:17;100028.14;;;25.85;46.28
36454;BME280;22478;51.740;-1.314;2023-06-10T11:04:47;100016.92;;;31.12;42.60
36454;BME280;22478;51.740;-1.314;2023-06-10T11:07:15;100015.71;;;29.72;43.47
36454;BME280;22478;51.740;-1.314;2023-06-10T11:09:58;100018.47;;;27.09;46.43
36454;BME280;22478;51.740;-1.314;2023-06-10T11:12:25;100020.18;;;23.84;53.45
36454;BME280;22478;51.740;-1.314;2023-06-10T11:14:54;100012.86;;;28.14;45.41
36454;BME280;22478;51.740;-1.314;2023-06-10T11:17:27;100009.57;;;26.43;48.86
36454;BME280;22478;51.740;-1.314;2023-06-10T11:19:58;100002.69;;;29.32;44.05
36454;BME280;22478;51.740;-1.314;2023-06-10T11:22:25;100001.69;;;27.74;45.11
36454;BME280;22478;51.740;-1.314;2023-06-10T11:24:52;99998.31;;;29.60;44.02
36454;BME280;22478;51.740;-1.314;2023-06-10T11:27:22;99998.59;;;31.25;41.45
36454;BME280;22478;51.740;-1.314;2023-06-10T11:29:58;99995.15;;;28.13;43.74
36454;BME280;22478;51.740;-1.314;2023-06-10T11:32:44;100000.34;;;27.93;44.63
36454;BME280;22478;51.740;-1.314;2023-06-10T11:35:12;99997.46;;;25.38;49.79
36454;BME280;22478;51.740;-1.314;2023-06-10T11:37:39;99990.41;;;29.72;43.66
36454;BME280;22478;51.740;-1.314;2023-06-10T11:40:08;99993.60;;;29.30;44.95
36454;BME280;22478;51.740;-1.314;2023-06-10T11:42:39;99995.74;;;25.85;49.81
36454;BME280;22478;51.740;-1.314;2023-06-10T11:45:08;99997.01;;;27.73;47.44
36454;BME280;22478;51.740;-1.314;2023-06-10T11:47:40;100000.07;;;26.13;49.26
36454;BME280;22478;51.740;-1.314;2023-06-10T11:50:28;99994.11;;;25.44;51.78
36454;BME280;22478;51.740;-1.314;2023-06-10T11:52:55;99996.88;;;26.16;51.97
36454;BME280;22478;51.740;-1.314;2023-06-10T11:55:22;99991.23;;;26.20;51.89
36454;BME280;22478;51.740;-1.314;2023-06-10T11:57:49;99989.60;;;28.71;47.37
36454;BME280;22478;51.740;-1.314;2023-06-10T12:00:18;99979.90;;;29.56;46.03
36454;BME280;22478;51.740;-1.314;2023-06-10T12:02:56;99984.60;;;30.18;44.93
36454;BME280;22478;51.740;-1.314;2023-06-10T12:05:22;99976.87;;;29.04;44.90
36454;BME280;22478;51.740;-1.314;2023-06-10T12:07:50;99985.48;;;28.32;47.41
36454;BME280;22478;51.740;-1.314;2023-06-10T12:10:32;99978.10;;;28.78;44.59
36454;BME280;22478;51.740;-1.314;2023-06-10T12:12:59;99975.94;;;30.07;43.01
36454;BME280;22478;51.740;-1.314;2023-06-10T12:15:27;99975.48;;;28.32;46.31
36454;BME280;22478;51.740;-1.314;2023-06-10T12:17:59;99971.80;;;29.33;43.24
36454;BME280;22478;51.740;-1.314;2023-06-10T12:20:28;99967.77;;;28.11;48.24
36454;BME280;22478;51.740;-1.314;2023-06-10T12:22:56;99971.40;;;28.46;45.17
36454;BME280;22478;51.740;-1.314;2023-06-10T12:25:25;99966.12;;;28.29;45.96
36454;BME280;22478;51.740;-1.314;2023-06-10T12:27:55;99960.64;;;29.69;42.97
36454;BME280;22478;51.740;-1.314;2023-06-10T12:30:24;99962.35;;;28.10;43.82
36454;BME280;22478;51.740;-1.314;2023-06-10T12:32:57;99954.90;;;31.91;37.98
36454;BME280;22478;51.740;-1.314;2023-06-10T12:35:25;99950.64;;;30.93;37.44
36454;BME280;22478;51.740;-1.314;2023-06-10T12:37:56;99948.93;;;30.10;35.96
36454;BME280;22478;51.740;-1.314;2023-06-10T12:40:27;99953.02;;;30.45;36.92
36454;BME280;22478;51.740;-1.314;2023-06-10T12:42:54;99951.26;;;29.74;36.72
36454;BME280;22478;51.740;-1.314;2023-06-10T12:45:31;99950.90;;;28.60;37.02
36454;BME280;22478;51.740;-1.314;2023-06-10T12:48:07;99947.30;;;31.56;34.25